createdAt,value
2022-08-26T00:00:03.827Z,22.06
2022-08-26T00:01:03.907Z,22.06
2022-08-26T00:02:03.941Z,22.06
2022-08-26T00:03:04.105Z,22.00
2022-08-26T00:04:04.148Z,22.00
2022-08-26T00:05:04.064Z,21.94
2022-08-26T00:06:04.068Z,21.94
2022-08-26T00:07:04.321Z,21.94
2022-08-26T00:08:04.150Z,21.94
2022-08-26T00:09:04.321Z,21.94
2022-08-26T00:10:04.616Z,21.88
2022-08-26T00:11:03.669Z,21.88
2022-08-26T00:12:03.581Z,21.88
2022-08-26T00:13:03.814Z,21.88
2022-08-26T00:14:03.925Z,21.81
2022-08-26T00:15:04.006Z,21.81
2022-08-26T00:16:04.101Z,21.81
2022-08-26T00:17:04.108Z,21.81
2022-08-26T00:18:04.179Z,21.75
2022-08-26T00:19:04.238Z,21.75
2022-08-26T00:20:04.242Z,21.75
2022-08-26T00:21:06.148Z,21.75
2022-08-26T00:22:04.147Z,21.69
2022-08-26T00:23:04.264Z,21.69
2022-08-26T00:24:04.322Z,21.69
2022-08-26T00:25:04.309Z,21.69
2022-08-26T00:26:04.319Z,21.69
2022-08-26T00:27:04.314Z,21.62
2022-08-26T00:28:04.348Z,21.62
2022-08-26T00:29:04.411Z,21.62
2022-08-26T00:30:04.396Z,21.62
2022-08-26T00:31:03.530Z,21.56
2022-08-26T00:32:04.018Z,21.56
2022-08-26T00:33:03.742Z,21.56
2022-08-26T00:34:03.860Z,21.56
2022-08-26T00:35:03.907Z,21.50
2022-08-26T00:36:03.998Z,21.50
2022-08-26T00:37:04.003Z,21.50
2022-08-26T00:38:04.000Z,21.50
2022-08-26T00:39:03.985Z,21.50
2022-08-26T00:40:05.084Z,21.44
2022-08-26T00:41:04.239Z,21.44
2022-08-26T00:42:04.312Z,21.44
2022-08-26T00:43:05.736Z,21.44
2022-08-26T00:44:03.457Z,21.44
2022-08-26T00:45:03.597Z,21.38
2022-08-26T00:46:03.617Z,21.38
2022-08-26T00:47:03.711Z,21.38
2022-08-26T00:48:03.870Z,21.38
2022-08-26T00:49:03.759Z,21.31
2022-08-26T00:50:03.683Z,21.31
2022-08-26T00:51:03.702Z,21.31
2022-08-26T00:52:03.665Z,21.31
2022-08-26T00:53:03.724Z,21.25
2022-08-26T00:54:03.757Z,21.25
2022-08-26T00:55:03.866Z,21.25
2022-08-26T00:56:03.743Z,21.25
2022-08-26T00:57:03.933Z,21.19
2022-08-26T00:58:03.847Z,21.19
2022-08-26T00:59:04.244Z,21.12
2022-08-26T01:00:03.909Z,21.12
2022-08-26T01:01:03.997Z,21.12
2022-08-26T01:02:03.968Z,21.12
2022-08-26T01:03:05.210Z,21.12
2022-08-26T01:04:03.992Z,21.06
2022-08-26T01:05:04.175Z,21.06
2022-08-26T01:06:04.248Z,21.06
2022-08-26T01:07:04.166Z,21.00
2022-08-26T01:08:04.250Z,21.00
2022-08-26T01:09:05.201Z,21.00
2022-08-26T01:10:04.337Z,21.00
2022-08-26T01:11:04.356Z,20.94
2022-08-26T01:12:04.229Z,20.94
2022-08-26T01:13:04.288Z,20.94
2022-08-26T01:14:04.314Z,20.88
2022-08-26T01:15:04.324Z,20.88
2022-08-26T01:16:04.394Z,20.81
2022-08-26T01:17:05.037Z,20.81
2022-08-26T01:18:04.401Z,20.81
2022-08-26T01:19:04.388Z,20.81
2022-08-26T01:20:04.437Z,20.81
2022-08-26T01:21:03.502Z,20.81
2022-08-26T01:22:03.609Z,20.75
2022-08-26T01:23:03.732Z,20.75
2022-08-26T01:24:03.671Z,20.75
2022-08-26T01:25:03.882Z,20.75
2022-08-26T01:26:03.753Z,20.69
2022-08-26T01:27:03.764Z,20.69
2022-08-26T01:28:03.927Z,20.69
2022-08-26T01:29:04.009Z,20.69
2022-08-26T01:30:04.090Z,20.62
2022-08-26T01:31:04.100Z,20.62
2022-08-26T01:32:05.085Z,20.62
2022-08-26T01:33:04.223Z,20.62
2022-08-26T01:34:04.229Z,20.56
2022-08-26T01:35:04.223Z,20.56
2022-08-26T01:36:04.250Z,20.56
2022-08-26T01:37:04.248Z,20.50
2022-08-26T01:38:04.350Z,20.50
2022-08-26T01:39:03.524Z,20.50
2022-08-26T01:40:03.479Z,20.50
2022-08-26T01:41:03.527Z,20.50
2022-08-26T01:42:03.600Z,20.44
2022-08-26T01:43:03.636Z,20.44
2022-08-26T01:44:03.696Z,20.44
2022-08-26T01:45:03.776Z,20.44
2022-08-26T01:46:03.991Z,20.38
2022-08-26T01:47:04.984Z,20.38
2022-08-26T01:48:03.923Z,20.38
2022-08-26T01:49:03.865Z,20.38
2022-08-26T01:50:03.909Z,20.31
2022-08-26T01:51:03.987Z,20.31
2022-08-26T01:52:03.929Z,20.31
2022-08-26T01:53:03.999Z,20.31
2022-08-26T01:54:04.006Z,20.31
2022-08-26T01:55:04.079Z,20.31
2022-08-26T01:56:04.070Z,20.31
2022-08-26T01:57:04.184Z,20.25
2022-08-26T01:58:04.147Z,20.25
2022-08-26T01:59:04.246Z,20.25
2022-08-26T02:00:04.317Z,20.25
2022-08-26T02:01:04.434Z,20.25
2022-08-26T02:02:04.385Z,20.19
2022-08-26T02:03:04.490Z,20.19
2022-08-26T02:04:04.460Z,20.19
2022-08-26T02:05:04.468Z,20.19
2022-08-26T02:06:04.510Z,20.19
2022-08-26T02:07:03.576Z,20.19
2022-08-26T02:08:03.586Z,20.19
2022-08-26T02:09:03.505Z,20.19
2022-08-26T02:10:03.766Z,20.19
2022-08-26T02:11:03.670Z,20.19
2022-08-26T02:12:03.764Z,20.12
2022-08-26T02:13:03.879Z,20.12
2022-08-26T02:14:03.845Z,20.12
2022-08-26T02:15:05.627Z,20.12
2022-08-26T02:16:03.950Z,20.06
2022-08-26T02:17:03.758Z,20.06
2022-08-26T02:18:03.927Z,20.06
2022-08-26T02:19:03.934Z,20.06
2022-08-26T02:20:03.978Z,20.06
2022-08-26T02:21:04.099Z,20.06
2022-08-26T02:22:04.067Z,20.06
2022-08-26T02:23:04.112Z,20.00
2022-08-26T02:24:04.140Z,20.00
2022-08-26T02:25:04.147Z,20.00
2022-08-26T02:26:04.323Z,20.00
2022-08-26T02:27:04.397Z,20.00
2022-08-26T02:28:04.315Z,20.00
2022-08-26T02:29:04.329Z,19.94
2022-08-26T02:30:04.322Z,19.94
2022-08-26T02:31:03.467Z,19.94
2022-08-26T02:32:03.608Z,19.94
2022-08-26T02:33:03.611Z,19.94
2022-08-26T02:34:03.744Z,19.94
2022-08-26T02:35:03.684Z,19.88
2022-08-26T02:36:03.758Z,19.88
2022-08-26T02:37:03.754Z,19.88
2022-08-26T02:38:03.920Z,19.88
2022-08-26T02:39:03.846Z,19.81
2022-08-26T02:40:03.883Z,19.81
2022-08-26T02:41:04.036Z,19.81
2022-08-26T02:42:03.998Z,19.81
2022-08-26T02:43:04.004Z,19.75
2022-08-26T02:44:03.996Z,19.75
2022-08-26T02:45:03.993Z,19.75
2022-08-26T02:46:04.161Z,19.75
2022-08-26T02:47:04.223Z,19.75
2022-08-26T02:48:04.170Z,19.75
2022-08-26T02:49:04.226Z,19.75
2022-08-26T02:50:04.238Z,19.75
2022-08-26T02:51:04.328Z,19.75
2022-08-26T02:52:04.319Z,19.75
2022-08-26T02:53:04.355Z,19.75
2022-08-26T02:54:04.084Z,19.69
2022-08-26T02:55:04.092Z,19.69
2022-08-26T02:56:04.239Z,19.69
2022-08-26T02:57:04.309Z,19.69
2022-08-26T02:58:04.169Z,19.69
2022-08-26T02:59:04.094Z,19.69
2022-08-26T03:00:04.158Z,19.62
2022-08-26T03:01:04.835Z,19.62
2022-08-26T03:02:04.352Z,19.62
2022-08-26T03:03:04.335Z,19.62
2022-08-26T03:04:04.315Z,19.62
2022-08-26T03:05:04.467Z,19.56
2022-08-26T03:06:04.390Z,19.56
2022-08-26T03:07:03.519Z,19.56
2022-08-26T03:08:03.665Z,19.56
2022-08-26T03:09:03.860Z,19.56
2022-08-26T03:10:06.974Z,19.56
2022-08-26T03:11:04.061Z,19.56
2022-08-26T03:12:04.173Z,19.56
2022-08-26T03:13:05.021Z,19.56
2022-08-26T03:14:04.320Z,19.56
2022-08-26T03:15:15.889Z,19.56
2022-08-26T03:16:03.569Z,19.56
2022-08-26T03:17:03.676Z,19.56
2022-08-26T03:18:03.663Z,19.56
2022-08-26T03:19:03.866Z,19.56
2022-08-26T03:20:03.771Z,19.56
2022-08-26T03:21:03.835Z,19.50
2022-08-26T03:22:03.914Z,19.50
2022-08-26T03:23:04.109Z,19.50
2022-08-26T03:24:04.109Z,19.50
2022-08-26T03:25:04.166Z,19.50
2022-08-26T03:26:04.069Z,19.44
2022-08-26T03:27:05.959Z,19.44
2022-08-26T03:28:05.265Z,19.44
2022-08-26T03:29:04.398Z,19.44
2022-08-26T03:30:04.503Z,19.44
2022-08-26T03:31:04.454Z,19.44
2022-08-26T03:32:03.626Z,19.44
2022-08-26T03:33:03.691Z,19.38
2022-08-26T03:34:03.673Z,19.38
2022-08-26T03:35:03.750Z,19.38
2022-08-26T03:36:03.833Z,19.38
2022-08-26T03:37:03.751Z,19.38
2022-08-26T03:38:03.770Z,19.38
2022-08-26T03:39:03.832Z,19.38
2022-08-26T03:40:04.296Z,19.38
2022-08-26T03:41:04.233Z,19.31
2022-08-26T03:42:04.316Z,19.31
2022-08-26T03:43:04.279Z,19.31
2022-08-26T03:44:04.487Z,19.25
2022-08-26T03:45:04.408Z,19.19
2022-08-26T03:46:04.432Z,19.19
2022-08-26T03:47:04.418Z,19.19
2022-08-26T03:48:03.522Z,19.19
2022-08-26T03:49:03.608Z,19.19
2022-08-26T03:50:03.589Z,19.19
2022-08-26T03:51:03.605Z,19.19
2022-08-26T03:52:03.612Z,19.19
2022-08-26T03:53:03.692Z,19.19
2022-08-26T03:54:03.661Z,19.25
2022-08-26T03:55:03.824Z,19.19
2022-08-26T03:56:03.846Z,19.25
2022-08-26T03:57:03.941Z,19.25
2022-08-26T03:58:04.013Z,19.19
2022-08-26T03:59:04.124Z,19.19
2022-08-26T04:00:04.155Z,19.19
2022-08-26T04:01:04.302Z,19.19
2022-08-26T04:02:04.416Z,19.19
2022-08-26T04:03:04.655Z,19.19
2022-08-26T04:04:04.478Z,19.19
2022-08-26T04:05:03.574Z,19.19
2022-08-26T04:06:03.666Z,19.19
2022-08-26T04:07:03.602Z,19.19
2022-08-26T04:08:03.614Z,19.19
2022-08-26T04:09:04.204Z,19.19
2022-08-26T04:10:03.689Z,19.19
2022-08-26T04:11:03.698Z,19.12
2022-08-26T04:12:03.687Z,19.12
2022-08-26T04:13:03.775Z,19.12
2022-08-26T04:14:03.768Z,19.12
2022-08-26T04:15:03.913Z,19.12
2022-08-26T04:16:03.917Z,19.12
2022-08-26T04:17:03.989Z,19.12
2022-08-26T04:18:03.988Z,19.12
2022-08-26T04:19:03.986Z,19.12
2022-08-26T04:20:04.156Z,19.12
2022-08-26T04:21:04.154Z,19.12
2022-08-26T04:22:04.331Z,19.12
2022-08-26T04:23:04.379Z,19.12
2022-08-26T04:24:04.263Z,19.12
2022-08-26T04:25:04.545Z,19.06
2022-08-26T04:26:03.684Z,19.06
2022-08-26T04:27:03.843Z,19.06
2022-08-26T04:28:03.843Z,19.06
2022-08-26T04:29:03.745Z,19.06
2022-08-26T04:30:03.846Z,19.06
2022-08-26T04:31:04.014Z,19.12
2022-08-26T04:32:04.068Z,19.12
2022-08-26T04:33:04.224Z,19.12
2022-08-26T04:34:04.251Z,19.12
2022-08-26T04:35:04.622Z,19.12
2022-08-26T04:36:04.404Z,19.12
2022-08-26T04:37:04.314Z,19.12
2022-08-26T04:38:04.313Z,19.12
2022-08-26T04:39:03.517Z,19.12
2022-08-26T04:40:03.625Z,19.12
2022-08-26T04:41:05.493Z,19.12
2022-08-26T04:42:03.745Z,19.12
2022-08-26T04:43:04.661Z,19.12
2022-08-26T04:44:03.857Z,19.12
2022-08-26T04:45:05.625Z,19.12
2022-08-26T04:46:03.964Z,19.12
2022-08-26T04:47:03.852Z,19.12
2022-08-26T04:48:03.918Z,19.19
2022-08-26T04:49:04.067Z,19.19
2022-08-26T04:50:03.991Z,19.19
2022-08-26T04:51:04.077Z,19.19
2022-08-26T04:52:04.091Z,19.19
2022-08-26T04:53:04.096Z,19.19
2022-08-26T04:54:04.009Z,19.25
2022-08-26T04:55:04.089Z,19.25
2022-08-26T04:56:04.166Z,19.25
2022-08-26T04:57:04.227Z,19.25
2022-08-26T04:58:04.399Z,19.31
2022-08-26T04:59:03.521Z,19.44
2022-08-26T05:00:03.599Z,19.50
2022-08-26T05:01:03.684Z,19.62
2022-08-26T05:02:03.640Z,19.69
2022-08-26T05:03:03.595Z,19.81
2022-08-26T05:04:04.917Z,19.94
2022-08-26T05:05:03.769Z,20.06
2022-08-26T05:06:03.911Z,20.25
2022-08-26T05:07:03.850Z,20.38
2022-08-26T05:08:03.852Z,20.38
2022-08-26T05:09:03.918Z,20.62
2022-08-26T05:10:04.009Z,20.75
2022-08-26T05:11:04.083Z,20.94
2022-08-26T05:12:04.254Z,21.06
2022-08-26T05:13:04.451Z,21.19
2022-08-26T05:14:04.472Z,21.38
2022-08-26T05:15:04.464Z,21.56
2022-08-26T05:16:03.533Z,21.69
2022-08-26T05:17:03.525Z,21.88
2022-08-26T05:18:03.514Z,22.00
2022-08-26T05:19:03.624Z,22.19
2022-08-26T05:20:03.533Z,22.38
2022-08-26T05:21:03.613Z,22.50
2022-08-26T05:22:03.674Z,22.69
2022-08-26T05:23:03.813Z,22.81
2022-08-26T05:24:03.931Z,23.00
2022-08-26T05:25:03.933Z,23.19
2022-08-26T05:26:05.005Z,23.38
2022-08-26T05:27:04.188Z,23.56
2022-08-26T05:28:04.097Z,23.75
2022-08-26T05:29:04.170Z,23.94
2022-08-26T05:30:04.187Z,24.12
2022-08-26T05:31:04.230Z,24.25
2022-08-26T05:32:04.243Z,24.44
2022-08-26T05:33:04.255Z,24.62
2022-08-26T05:34:04.167Z,24.88
2022-08-26T05:35:04.169Z,25.06
2022-08-26T05:36:04.322Z,25.25
2022-08-26T05:37:04.408Z,25.44
2022-08-26T05:38:04.481Z,25.56
2022-08-26T05:39:04.400Z,25.69
2022-08-26T05:40:04.570Z,25.88
2022-08-26T05:41:03.604Z,25.94
2022-08-26T05:42:03.585Z,25.88
2022-08-26T05:43:03.689Z,25.69
2022-08-26T05:44:03.668Z,25.62
2022-08-26T05:45:03.667Z,25.56
2022-08-26T05:46:03.763Z,25.56
2022-08-26T05:47:03.761Z,25.56
2022-08-26T05:48:03.843Z,25.69
2022-08-26T05:49:03.991Z,25.81
2022-08-26T05:50:04.102Z,26.00
2022-08-26T05:51:04.150Z,26.12
2022-08-26T05:52:04.081Z,26.31
2022-08-26T05:53:04.157Z,26.50
2022-08-26T05:54:04.328Z,26.69
2022-08-26T05:55:04.317Z,26.94
2022-08-26T05:56:04.211Z,27.19
2022-08-26T05:57:04.407Z,27.38
2022-08-26T05:58:04.425Z,27.50
2022-08-26T05:59:04.555Z,27.56
2022-08-26T06:00:03.541Z,27.62
2022-08-26T06:01:03.534Z,27.69
2022-08-26T06:02:03.626Z,27.81
2022-08-26T06:03:03.561Z,27.94
2022-08-26T06:04:03.661Z,28.12
2022-08-26T06:05:03.606Z,28.31
2022-08-26T06:06:03.871Z,28.44
2022-08-26T06:07:03.924Z,28.56
2022-08-26T06:08:03.832Z,28.69
2022-08-26T06:09:03.741Z,28.75
2022-08-26T06:10:28.493Z,28.88
2022-08-26T06:11:03.906Z,29.00
2022-08-26T06:12:04.003Z,29.06
2022-08-26T06:13:09.157Z,29.12
2022-08-26T06:14:04.275Z,29.19
2022-08-26T06:15:04.171Z,29.25
2022-08-26T06:16:04.197Z,29.19
2022-08-26T06:17:04.086Z,29.12
2022-08-26T06:18:03.981Z,29.12
2022-08-26T06:19:10.325Z,29.06
2022-08-26T06:20:03.989Z,29.00
2022-08-26T06:21:04.073Z,28.94
2022-08-26T06:22:04.152Z,28.94
2022-08-26T06:23:04.240Z,28.88
2022-08-26T06:24:04.150Z,28.88
2022-08-26T06:25:04.238Z,28.88
2022-08-26T06:26:04.334Z,28.94
2022-08-26T06:27:04.342Z,29.00
2022-08-26T06:28:04.333Z,29.06
2022-08-26T06:29:04.318Z,29.12
2022-08-26T06:30:04.403Z,29.19
2022-08-26T06:31:04.583Z,29.25
2022-08-26T06:32:03.508Z,29.31
2022-08-26T06:33:03.711Z,29.38
2022-08-26T06:34:06.207Z,29.44
2022-08-26T06:35:03.509Z,29.50
2022-08-26T06:36:03.522Z,29.62
2022-08-26T06:37:03.659Z,29.69
2022-08-26T06:38:03.612Z,29.81
2022-08-26T06:39:03.670Z,29.88
2022-08-26T06:40:03.826Z,30.00
2022-08-26T06:41:03.669Z,30.06
2022-08-26T06:42:06.094Z,30.12
2022-08-26T06:43:03.692Z,30.19
2022-08-26T06:44:03.684Z,30.25
2022-08-26T06:45:03.680Z,30.31
2022-08-26T06:46:03.780Z,30.38
2022-08-26T06:47:03.932Z,30.44
2022-08-26T06:48:03.927Z,30.50
2022-08-26T06:49:04.072Z,30.56
2022-08-26T06:50:04.059Z,30.62
2022-08-26T06:51:04.139Z,30.69
2022-08-26T06:52:04.253Z,30.75
2022-08-26T06:53:04.336Z,30.81
2022-08-26T06:54:04.319Z,30.88
2022-08-26T06:55:04.333Z,31.00
2022-08-26T06:56:04.470Z,31.00
2022-08-26T06:57:03.555Z,31.06
2022-08-26T06:58:03.595Z,31.12
2022-08-26T06:59:03.663Z,31.19
2022-08-26T07:00:03.688Z,31.25
2022-08-26T07:01:09.176Z,31.31
2022-08-26T07:02:03.919Z,31.38
2022-08-26T07:03:03.826Z,31.44
2022-08-26T07:04:03.867Z,31.50
2022-08-26T07:05:03.758Z,31.56
2022-08-26T07:06:03.766Z,31.62
2022-08-26T07:07:03.765Z,31.69
2022-08-26T07:08:03.841Z,31.75
2022-08-26T07:09:03.931Z,31.75
2022-08-26T07:10:03.898Z,31.75
2022-08-26T07:11:03.924Z,31.81
2022-08-26T07:12:04.026Z,31.81
2022-08-26T07:13:04.118Z,31.94
2022-08-26T07:14:04.070Z,32.00
2022-08-26T07:15:04.078Z,32.06
2022-08-26T07:16:04.195Z,32.19
2022-08-26T07:17:04.313Z,32.25
2022-08-26T07:18:04.306Z,32.38
2022-08-26T07:19:10.745Z,32.44
2022-08-26T07:20:04.265Z,32.50
2022-08-26T07:21:04.243Z,32.62
2022-08-26T07:22:04.366Z,32.69
2022-08-26T07:23:04.430Z,32.75
2022-08-26T07:24:04.240Z,32.75
2022-08-26T07:25:04.316Z,32.81
2022-08-26T07:26:04.513Z,32.94
2022-08-26T07:27:04.882Z,33.00
2022-08-26T07:28:04.480Z,33.06
2022-08-26T07:29:04.466Z,33.12
2022-08-26T07:30:03.520Z,33.12
2022-08-26T07:31:03.725Z,33.19
2022-08-26T07:32:03.761Z,33.19
2022-08-26T07:33:03.866Z,33.25
2022-08-26T07:34:03.922Z,33.31
2022-08-26T07:35:03.915Z,33.31
2022-08-26T07:36:04.261Z,33.25
2022-08-26T07:37:03.833Z,33.19
2022-08-26T07:38:03.916Z,33.12
2022-08-26T07:39:04.072Z,33.12
2022-08-26T07:40:04.261Z,33.12
2022-08-26T07:41:04.152Z,33.19
2022-08-26T07:42:07.610Z,33.31
2022-08-26T07:43:04.339Z,33.31
2022-08-26T07:44:04.400Z,33.44
2022-08-26T07:45:04.479Z,33.38
2022-08-26T07:46:03.502Z,33.38
2022-08-26T07:47:03.527Z,33.25
2022-08-26T07:48:03.898Z,33.31
2022-08-26T07:49:03.617Z,33.31
2022-08-26T07:50:03.509Z,33.31
2022-08-26T07:51:03.678Z,33.31
2022-08-26T07:52:03.712Z,33.31
2022-08-26T07:53:03.698Z,33.38
2022-08-26T07:54:03.714Z,33.38
2022-08-26T07:55:03.751Z,33.44
2022-08-26T07:56:03.741Z,33.50
2022-08-26T07:57:05.183Z,33.50
2022-08-26T07:58:03.937Z,33.62
2022-08-26T07:59:04.108Z,33.69
2022-08-26T08:00:04.160Z,33.75
2022-08-26T08:01:04.093Z,33.81
2022-08-26T08:02:04.227Z,33.88
2022-08-26T08:03:04.233Z,33.88
2022-08-26T08:04:04.348Z,33.94
2022-08-26T08:05:04.556Z,33.88
2022-08-26T08:06:03.670Z,33.81
2022-08-26T08:07:03.769Z,33.75
2022-08-26T08:08:21.850Z,33.69
2022-08-26T08:09:03.766Z,33.75
2022-08-26T08:10:06.683Z,33.75
2022-08-26T08:11:03.858Z,33.81
2022-08-26T08:12:03.760Z,33.81
2022-08-26T08:13:03.772Z,33.88
2022-08-26T08:14:03.839Z,33.88
2022-08-26T08:15:03.941Z,33.94
2022-08-26T08:16:04.000Z,33.94
2022-08-26T08:17:04.219Z,33.94
2022-08-26T08:18:04.311Z,33.88
2022-08-26T08:19:04.162Z,33.94
2022-08-26T08:20:04.306Z,34.00
2022-08-26T08:21:19.879Z,34.06
2022-08-26T08:22:04.316Z,34.12
2022-08-26T08:23:04.318Z,34.06
2022-08-26T08:24:04.390Z,34.06
2022-08-26T08:25:06.315Z,34.12
2022-08-26T08:26:03.508Z,34.19
2022-08-26T08:27:03.435Z,34.19
2022-08-26T08:28:03.617Z,34.06
2022-08-26T08:29:03.516Z,33.75
2022-08-26T08:30:03.501Z,33.69
2022-08-26T08:31:03.550Z,33.62
2022-08-26T08:32:03.650Z,33.50
2022-08-26T08:33:03.596Z,33.50
2022-08-26T08:34:03.769Z,33.50
2022-08-26T08:35:11.012Z,33.56
2022-08-26T08:36:04.011Z,33.44
2022-08-26T08:37:05.217Z,33.31
2022-08-26T08:38:04.233Z,33.31
2022-08-26T08:39:03.996Z,33.38
2022-08-26T08:40:04.310Z,33.44
2022-08-26T08:41:05.497Z,33.44
2022-08-26T08:42:04.255Z,33.44
2022-08-26T08:43:04.319Z,33.50
2022-08-26T08:44:04.244Z,33.50
2022-08-26T08:45:04.268Z,33.44
2022-08-26T08:46:04.351Z,33.44
2022-08-26T08:47:04.397Z,33.44
2022-08-26T08:48:04.481Z,33.44
2022-08-26T08:49:03.528Z,33.50
2022-08-26T08:50:03.517Z,33.50
2022-08-26T08:51:03.665Z,33.44
2022-08-26T08:52:04.141Z,33.38
2022-08-26T08:53:03.614Z,33.38
2022-08-26T08:54:03.678Z,33.31
2022-08-26T08:55:03.751Z,33.19
2022-08-26T08:56:03.861Z,33.12
2022-08-26T08:57:03.970Z,33.00
2022-08-26T08:58:03.910Z,33.00
2022-08-26T08:59:03.997Z,32.94
2022-08-26T09:00:04.092Z,32.88
2022-08-26T09:01:04.118Z,32.75
2022-08-26T09:02:04.119Z,32.69
2022-08-26T09:03:04.074Z,32.69
2022-08-26T09:04:04.077Z,32.69
2022-08-26T09:05:04.294Z,32.75
2022-08-26T09:06:04.271Z,32.75
2022-08-26T09:07:04.499Z,32.75
2022-08-26T09:08:03.651Z,32.75
2022-08-26T09:09:03.706Z,32.69
2022-08-26T09:10:03.765Z,32.69
2022-08-26T09:11:03.909Z,32.69
2022-08-26T09:12:04.128Z,32.69
2022-08-26T09:13:04.055Z,32.69
2022-08-26T09:14:04.148Z,32.62
2022-08-26T09:15:04.231Z,32.56
2022-08-26T09:16:04.327Z,32.50
2022-08-26T09:17:04.372Z,32.50
2022-08-26T09:18:04.476Z,32.50
2022-08-26T09:19:04.444Z,32.50
2022-08-26T09:20:04.418Z,32.50
2022-08-26T09:21:04.493Z,32.50
2022-08-26T09:22:07.094Z,32.50
2022-08-26T09:23:03.647Z,32.56
2022-08-26T09:24:03.610Z,32.56
2022-08-26T09:25:03.515Z,32.56
2022-08-26T09:26:03.692Z,32.50
2022-08-26T09:27:03.672Z,32.50
2022-08-26T09:28:03.705Z,32.50
2022-08-26T09:29:03.695Z,32.50
2022-08-26T09:30:03.870Z,32.50
2022-08-26T09:31:05.823Z,32.44
2022-08-26T09:32:03.770Z,32.31
2022-08-26T09:33:03.793Z,32.06
2022-08-26T09:34:03.840Z,32.00
2022-08-26T09:35:03.873Z,31.94
2022-08-26T09:36:03.834Z,31.94
2022-08-26T09:37:04.617Z,32.00
2022-08-26T09:38:04.080Z,32.00
2022-08-26T09:39:03.990Z,32.06
2022-08-26T09:40:04.190Z,32.06
2022-08-26T09:41:05.110Z,31.94
2022-08-26T09:42:04.318Z,31.88
2022-08-26T09:43:04.317Z,31.88
2022-08-26T09:44:04.476Z,31.81
2022-08-26T09:45:04.486Z,31.81
2022-08-26T09:46:03.636Z,31.81
2022-08-26T09:47:03.672Z,31.81
2022-08-26T09:48:03.753Z,31.88
2022-08-26T09:49:03.858Z,31.88
2022-08-26T09:50:03.757Z,31.88
2022-08-26T09:51:03.945Z,31.81
2022-08-26T09:52:03.939Z,31.62
2022-08-26T09:53:03.907Z,31.50
2022-08-26T09:54:05.663Z,31.38
2022-08-26T09:55:04.157Z,31.38
2022-08-26T09:56:04.167Z,31.31
2022-08-26T09:57:04.223Z,31.25
2022-08-26T09:58:04.347Z,31.12
2022-08-26T09:59:04.559Z,31.06
2022-08-26T10:00:03.523Z,31.06
2022-08-26T10:01:03.532Z,31.06
2022-08-26T10:02:03.673Z,31.06
2022-08-26T10:03:03.693Z,31.12
2022-08-26T10:04:03.573Z,31.12
2022-08-26T10:05:09.407Z,31.19
2022-08-26T10:06:03.799Z,31.19
2022-08-26T10:07:03.842Z,31.25
2022-08-26T10:08:03.743Z,31.25
2022-08-26T10:09:06.874Z,31.25
2022-08-26T10:10:08.022Z,31.25
2022-08-26T10:11:03.943Z,31.19
2022-08-26T10:12:04.031Z,31.12
2022-08-26T10:13:03.983Z,31.06
2022-08-26T10:14:04.004Z,31.06
2022-08-26T10:15:04.153Z,31.06
2022-08-26T10:16:04.158Z,31.00
2022-08-26T10:17:04.431Z,31.00
2022-08-26T10:18:04.505Z,31.06
2022-08-26T10:19:03.525Z,31.06
2022-08-26T10:20:03.609Z,31.06
2022-08-26T10:21:03.625Z,31.00
2022-08-26T10:22:03.675Z,31.00
2022-08-26T10:23:03.861Z,31.00
2022-08-26T10:24:03.856Z,30.94
2022-08-26T10:25:03.941Z,31.00
2022-08-26T10:26:03.915Z,31.00
2022-08-26T10:27:04.072Z,30.94
2022-08-26T10:28:04.068Z,31.00
2022-08-26T10:29:04.162Z,31.00
2022-08-26T10:30:04.220Z,30.88
2022-08-26T10:31:04.298Z,30.88
2022-08-26T10:32:04.459Z,30.88
2022-08-26T10:33:04.407Z,30.94
2022-08-26T10:34:03.600Z,30.94
2022-08-26T10:35:03.690Z,31.00
2022-08-26T10:36:03.749Z,31.00
2022-08-26T10:37:10.866Z,31.12
2022-08-26T10:38:03.748Z,31.19
2022-08-26T10:39:03.658Z,31.25
2022-08-26T10:40:03.894Z,31.31
2022-08-26T10:41:03.756Z,31.31
2022-08-26T10:42:03.929Z,31.31
2022-08-26T10:43:07.277Z,31.31
2022-08-26T10:44:04.009Z,31.31
2022-08-26T10:45:04.015Z,31.38
2022-08-26T10:46:04.045Z,31.38
2022-08-26T10:47:04.162Z,31.44
2022-08-26T10:48:04.245Z,31.44
2022-08-26T10:49:04.311Z,31.44
2022-08-26T10:50:04.406Z,31.44
2022-08-26T10:51:04.196Z,31.44
2022-08-26T10:52:04.234Z,31.44
2022-08-26T10:53:04.486Z,31.44
2022-08-26T10:54:03.607Z,31.31
2022-08-26T10:55:03.694Z,31.12
2022-08-26T10:56:03.765Z,31.00
2022-08-26T10:57:03.910Z,30.88
2022-08-26T10:58:04.625Z,30.75
2022-08-26T10:59:04.162Z,30.81
2022-08-26T11:00:04.314Z,30.81
2022-08-26T11:01:04.169Z,30.81
2022-08-26T11:02:04.330Z,30.75
2022-08-26T11:03:04.400Z,30.81
2022-08-26T11:04:04.438Z,30.81
2022-08-26T11:05:04.393Z,30.81
2022-08-26T11:06:04.499Z,30.81
2022-08-26T11:07:04.453Z,30.81
2022-08-26T11:08:03.672Z,30.81
2022-08-26T11:09:03.576Z,30.81
2022-08-26T11:10:03.602Z,30.94
2022-08-26T11:11:03.667Z,31.00
2022-08-26T11:12:06.831Z,31.00
2022-08-26T11:13:03.902Z,31.00
2022-08-26T11:14:03.909Z,31.00
2022-08-26T11:15:05.178Z,30.94
2022-08-26T11:16:04.120Z,30.94
2022-08-26T11:17:04.160Z,31.00
2022-08-26T11:18:04.312Z,31.06
2022-08-26T11:19:04.255Z,31.00
2022-08-26T11:20:07.543Z,31.00
2022-08-26T11:21:04.492Z,31.00
2022-08-26T11:22:03.513Z,30.94
2022-08-26T11:23:03.669Z,31.00
2022-08-26T11:24:03.778Z,31.00
2022-08-26T11:25:03.834Z,30.94
2022-08-26T11:26:03.857Z,31.00
2022-08-26T11:27:03.914Z,31.06
2022-08-26T11:28:04.006Z,31.12
2022-08-26T11:29:03.998Z,31.19
2022-08-26T11:30:04.166Z,31.19
2022-08-26T11:31:04.509Z,31.19
2022-08-26T11:32:04.355Z,31.25
2022-08-26T11:33:04.405Z,31.25
2022-08-26T11:34:04.332Z,31.19
2022-08-26T11:35:04.514Z,31.12
2022-08-26T11:36:11.562Z,31.06
2022-08-26T11:37:04.110Z,31.00
2022-08-26T11:38:04.343Z,31.00
2022-08-26T11:39:03.750Z,31.00
2022-08-26T11:40:03.891Z,30.94
2022-08-26T11:41:03.781Z,31.00
2022-08-26T11:42:03.841Z,30.94
2022-08-26T11:43:03.745Z,30.94
2022-08-26T11:44:03.826Z,30.94
2022-08-26T11:45:05.592Z,30.94
2022-08-26T11:46:03.768Z,30.94
2022-08-26T11:47:03.818Z,30.94
2022-08-26T11:48:03.906Z,30.94
2022-08-26T11:49:03.935Z,30.94
2022-08-26T11:50:04.073Z,30.94
2022-08-26T11:51:04.254Z,31.00
2022-08-26T11:52:04.181Z,31.06
2022-08-26T11:53:04.231Z,31.12
2022-08-26T11:54:04.243Z,31.12
2022-08-26T11:55:04.415Z,31.12
2022-08-26T11:56:04.487Z,31.12
2022-08-26T11:57:07.907Z,31.19
2022-08-26T11:58:04.780Z,31.19
2022-08-26T11:59:03.513Z,31.19
2022-08-26T12:00:03.590Z,31.25
2022-08-26T12:01:03.784Z,31.31
2022-08-26T12:02:03.712Z,31.38
2022-08-26T12:03:03.896Z,31.31
2022-08-26T12:04:03.827Z,31.31
2022-08-26T12:05:03.850Z,31.25
2022-08-26T12:06:03.844Z,31.19
2022-08-26T12:07:03.934Z,31.12
2022-08-26T12:08:04.090Z,31.00
2022-08-26T12:09:04.087Z,30.94
2022-08-26T12:10:04.155Z,30.88
2022-08-26T12:11:04.266Z,30.88
2022-08-26T12:12:04.241Z,30.94
2022-08-26T12:13:04.392Z,30.94
2022-08-26T12:14:04.398Z,30.88
2022-08-26T12:15:03.511Z,30.88
2022-08-26T12:16:03.553Z,30.88
2022-08-26T12:17:03.580Z,30.81
2022-08-26T12:18:03.757Z,30.75
2022-08-26T12:19:03.748Z,30.62
2022-08-26T12:20:03.731Z,30.56
2022-08-26T12:21:03.945Z,30.56
2022-08-26T12:22:03.920Z,30.62
2022-08-26T12:23:03.896Z,30.62
2022-08-26T12:24:03.999Z,30.69
2022-08-26T12:25:03.981Z,30.69
2022-08-26T12:26:03.919Z,30.69
2022-08-26T12:27:03.995Z,30.69
2022-08-26T12:28:04.081Z,30.75
2022-08-26T12:29:10.050Z,30.75
2022-08-26T12:30:04.140Z,30.69
2022-08-26T12:31:04.247Z,30.69
2022-08-26T12:32:04.384Z,30.69
2022-08-26T12:33:08.086Z,30.69
2022-08-26T12:34:04.228Z,30.69
2022-08-26T12:36:04.356Z,30.69
2022-08-26T12:37:04.419Z,30.69
2022-08-26T12:38:04.393Z,30.62
2022-08-26T12:39:04.473Z,30.62
2022-08-26T12:40:03.611Z,30.62
2022-08-26T12:41:04.471Z,30.62
2022-08-26T12:42:03.502Z,30.62
2022-08-26T12:43:03.675Z,30.62
2022-08-26T12:44:03.576Z,30.62
2022-08-26T12:45:03.667Z,30.56
2022-08-26T12:46:03.745Z,30.50
2022-08-26T12:47:03.670Z,30.44
2022-08-26T12:48:03.774Z,30.44
2022-08-26T12:49:03.743Z,30.38
2022-08-26T12:50:03.666Z,30.31
2022-08-26T12:51:03.754Z,30.31
2022-08-26T12:52:03.658Z,30.31
2022-08-26T12:53:03.757Z,30.31